createdAt,value
2018-04-11T00:00:36.985Z,13.37
2018-04-11T00:03:04.544Z,13.67
2018-04-11T00:05:32.072Z,12.37
2018-04-11T00:07:59.650Z,12.83
2018-04-11T00:10:27.177Z,13.57
2018-04-11T00:12:54.738Z,13.20
2018-04-11T00:15:22.315Z,13.50
2018-04-11T00:17:49.857Z,13.33
2018-04-11T00:20:17.414Z,11.93
2018-04-11T00:22:44.949Z,12.37
2018-04-11T00:25:13.268Z,13.13
2018-04-11T00:27:40.801Z,12.87
2018-04-11T00:30:08.351Z,12.50
2018-04-11T00:32:36.659Z,12.77
2018-04-11T00:35:04.212Z,12.90
2018-04-11T00:37:31.738Z,13.40
2018-04-11T00:40:00.064Z,13.23
2018-04-11T00:42:27.589Z,12.40
2018-04-11T00:44:55.157Z,13.10
2018-04-11T00:47:22.694Z,12.33
2018-04-11T00:49:51.012Z,13.47
2018-04-11T00:52:18.541Z,12.80
2018-04-11T00:54:46.867Z,13.00
2018-04-11T00:57:14.401Z,13.10
2018-04-11T00:59:41.957Z,12.80
2018-04-11T01:02:09.481Z,13.27
2018-04-11T01:04:37.011Z,13.03
2018-04-11T01:07:05.324Z,12.27
2018-04-11T01:09:33.624Z,12.83
2018-04-11T01:12:01.185Z,12.73
2018-04-11T01:14:28.717Z,12.67
2018-04-11T01:16:56.276Z,12.93
2018-04-11T01:19:23.804Z,13.63
2018-04-11T01:21:51.362Z,12.60
2018-04-11T01:24:18.901Z,13.43
2018-04-11T01:26:46.465Z,13.03
2018-04-11T01:29:13.992Z,12.63
2018-04-11T01:31:42.312Z,13.13
2018-04-11T01:34:09.835Z,13.90
2018-04-11T01:36:38.155Z,12.50
2018-04-11T01:39:05.679Z,12.77
2018-04-11T01:41:33.240Z,12.87
2018-04-11T01:44:00.768Z,13.43
2018-04-11T01:46:28.331Z,13.13
2018-04-11T01:48:55.852Z,13.40
2018-04-11T01:51:23.424Z,13.37
2018-04-11T01:53:50.957Z,14.43
2018-04-11T01:56:18.488Z,12.13
2018-04-11T01:58:46.816Z,13.13
2018-04-11T02:01:14.335Z,13.50
2018-04-11T02:03:42.652Z,13.37
2018-04-11T02:06:10.171Z,13.17
2018-04-11T02:08:38.493Z,14.20
2018-04-11T02:11:06.019Z,13.67
2018-04-11T02:13:33.571Z,13.90
2018-04-11T02:16:01.865Z,13.00
2018-04-11T02:18:29.420Z,13.57
2018-04-11T02:20:56.940Z,12.90
2018-04-11T02:23:24.500Z,12.97
2018-04-11T02:25:52.021Z,13.23
2018-04-11T02:28:19.576Z,13.33
2018-04-11T02:30:47.101Z,13.07
2018-04-11T02:33:15.420Z,13.47
2018-04-11T02:35:42.937Z,13.13
2018-04-11T02:38:11.263Z,13.50
2018-04-11T02:40:38.788Z,12.77
2018-04-11T02:43:06.351Z,12.83
2018-04-11T02:45:33.881Z,13.60
2018-04-11T02:48:01.441Z,13.00
2018-04-11T02:50:28.964Z,13.30
2018-04-11T02:52:56.533Z,13.20
2018-04-11T02:55:24.063Z,12.83
2018-04-11T02:57:51.600Z,13.60
2018-04-11T03:00:19.930Z,13.20
2018-04-11T03:02:47.451Z,13.03
2018-04-11T03:05:15.012Z,13.63
2018-04-11T03:07:42.558Z,13.77
2018-04-11T03:10:10.118Z,12.77
2018-04-11T03:12:38.409Z,14.07
2018-04-11T03:15:05.961Z,12.27
2018-04-11T03:17:33.484Z,12.90
2018-04-11T03:20:01.037Z,12.47
2018-04-11T03:22:28.565Z,12.40
2018-04-11T03:24:56.121Z,13.13
2018-04-11T03:27:23.646Z,12.67
2018-04-11T03:29:51.964Z,13.00
2018-04-11T03:32:19.494Z,13.40
2018-04-11T03:34:47.808Z,14.33
2018-04-11T03:37:15.334Z,12.67
2018-04-11T03:39:43.651Z,12.93
2018-04-11T03:42:11.183Z,13.53
2018-04-11T03:44:38.740Z,13.03
2018-04-11T03:47:06.274Z,12.80
2018-04-11T03:49:34.615Z,12.30
2018-04-11T03:52:02.136Z,13.33
2018-04-11T03:54:30.456Z,12.33
2018-04-11T03:56:58.753Z,12.60
2018-04-11T03:59:26.282Z,12.37
2018-04-11T04:01:53.832Z,12.70
2018-04-11T04:04:21.361Z,12.37
2018-04-11T04:06:49.680Z,12.20
2018-04-11T04:09:17.207Z,12.40
2018-04-11T04:11:45.524Z,11.63
2018-04-11T04:14:25.000Z,12.57
2018-04-11T04:17:04.502Z,13.20
2018-04-11T04:22:33.409Z,12.17
2018-04-11T04:25:00.940Z,12.43
2018-04-11T04:27:29.261Z,11.87
2018-04-11T04:29:56.788Z,11.90
2018-04-11T04:32:24.344Z,11.77
2018-04-11T04:34:51.865Z,11.97
2018-04-11T04:37:19.435Z,12.60
2018-04-11T04:39:46.948Z,12.60
2018-04-11T04:42:14.495Z,11.57
2018-04-11T04:44:42.029Z,12.47
2018-04-11T04:47:10.356Z,11.77
2018-04-11T04:49:37.884Z,11.80
2018-04-11T04:52:05.471Z,12.20
2018-04-11T04:54:33.204Z,12.17
2018-04-11T04:57:00.891Z,12.30
2018-04-11T04:59:28.424Z,11.00
2018-04-11T05:01:56.002Z,12.20
2018-04-11T05:04:23.521Z,11.60
2018-04-11T05:06:51.088Z,11.40
2018-04-11T05:09:19.396Z,11.73
2018-04-11T05:11:46.985Z,12.33
2018-04-11T05:14:15.874Z,11.70
2018-04-11T05:16:43.390Z,11.17
2018-04-11T05:19:10.992Z,12.23
2018-04-11T05:21:38.530Z,12.43
2018-04-11T05:24:06.093Z,12.27
2018-04-11T05:26:33.622Z,10.47
2018-04-11T05:29:01.186Z,11.47
2018-04-11T05:31:28.714Z,11.27
2018-04-11T05:33:56.282Z,11.10
2018-04-11T05:36:23.810Z,11.23
2018-04-11T05:38:51.385Z,10.97
2018-04-11T05:41:18.930Z,11.30
2018-04-11T05:43:46.494Z,10.47
2018-04-11T05:46:14.022Z,10.83
2018-04-11T05:48:41.594Z,11.27
2018-04-11T05:51:09.125Z,11.10
2018-04-11T05:53:36.689Z,10.90
2018-04-11T05:56:04.214Z,11.60
2018-04-11T05:58:31.782Z,11.30
2018-04-11T06:00:59.326Z,11.60
2018-04-11T06:03:26.891Z,11.03
2018-04-11T06:05:54.427Z,11.03
2018-04-11T06:08:22.738Z,11.53
2018-04-11T06:10:50.274Z,12.20
2018-04-11T06:13:17.816Z,12.00
2018-04-11T06:15:45.813Z,11.87
2018-04-11T06:18:13.415Z,12.00
2018-04-11T06:20:41.753Z,12.50
2018-04-11T06:23:09.294Z,12.93
2018-04-11T06:25:36.867Z,12.00
2018-04-11T06:28:04.426Z,12.40
2018-04-11T06:30:31.972Z,13.23
2018-04-11T06:32:59.506Z,12.33
2018-04-11T06:35:27.832Z,12.83
2018-04-11T06:37:55.361Z,12.43
2018-04-11T06:40:22.924Z,13.93
2018-04-11T06:42:50.448Z,13.73
2018-04-11T06:45:18.965Z,13.83
2018-04-11T06:47:46.498Z,13.97
2018-04-11T06:50:14.817Z,12.37
2018-04-11T06:52:42.341Z,12.83
2018-04-11T06:55:10.685Z,13.90
2018-04-11T06:57:38.264Z,13.40
2018-04-11T07:00:05.832Z,16.23
2018-04-11T07:02:34.128Z,13.70
2018-04-11T07:05:02.456Z,14.37
2018-04-11T07:07:29.985Z,14.43
2018-04-11T07:09:57.549Z,13.33
2018-04-11T07:12:25.073Z,14.37
2018-04-11T07:14:53.437Z,14.27
2018-04-11T07:17:20.960Z,15.57
2018-04-11T07:19:48.489Z,14.57
2018-04-11T07:22:16.053Z,15.60
2018-04-11T07:24:43.591Z,16.30
2018-04-11T07:27:11.140Z,15.60
2018-04-11T07:29:38.669Z,15.37
2018-04-11T07:32:06.228Z,16.47
2018-04-11T07:34:33.769Z,15.70
2018-04-11T07:37:01.331Z,17.13
2018-04-11T07:39:28.856Z,15.97
2018-04-11T07:41:57.185Z,16.33
2018-04-11T07:44:24.712Z,16.90
2018-04-11T07:46:52.284Z,17.73
2018-04-11T07:49:19.808Z,16.70
2018-04-11T07:51:48.103Z,16.37
2018-04-11T07:54:15.663Z,17.10
2018-04-11T07:56:43.259Z,18.17
2018-04-11T07:59:10.815Z,17.23
2018-04-11T08:01:38.340Z,17.10
2018-04-11T08:04:06.669Z,16.83
2018-04-11T08:06:34.194Z,17.27
2018-04-11T08:09:01.745Z,16.07
2018-04-11T08:11:29.275Z,14.83
2018-04-11T08:13:56.836Z,16.17
2018-04-11T08:16:24.365Z,16.80
2018-04-11T08:18:51.925Z,16.40
2018-04-11T08:21:19.456Z,14.83
2018-04-11T08:23:46.521Z,14.20
2018-04-11T08:26:14.088Z,15.03
2018-04-11T08:28:41.615Z,14.83
2018-04-11T08:31:09.177Z,14.97
2018-04-11T08:33:36.698Z,15.30
2018-04-11T08:36:04.258Z,14.57
2018-04-11T08:38:31.788Z,16.10
2018-04-11T08:40:59.348Z,18.10
2018-04-11T08:43:26.877Z,15.43
2018-04-11T08:45:54.432Z,16.73
2018-04-11T08:48:22.721Z,15.30
2018-04-11T08:50:50.282Z,14.80
2018-04-11T08:53:17.805Z,15.43
2018-04-11T08:55:45.372Z,15.50
2018-04-11T08:58:13.668Z,16.13
2018-04-11T09:00:42.053Z,16.73
2018-04-11T09:03:09.585Z,16.67
2018-04-11T09:05:37.144Z,17.83
2018-04-11T09:08:04.677Z,16.90
2018-04-11T09:10:32.237Z,19.50
2018-04-11T09:12:59.761Z,19.33
2018-04-11T09:15:27.316Z,19.73
2018-04-11T09:17:54.844Z,18.97
2018-04-11T09:20:22.404Z,19.70
2018-04-11T09:22:49.930Z,19.60
2018-04-11T09:25:17.455Z,19.63
2018-04-11T09:27:45.017Z,21.00
2018-04-11T09:30:12.539Z,21.43
2018-04-11T09:32:40.110Z,20.87
2018-04-11T09:35:08.403Z,24.23
2018-04-11T09:37:36.725Z,21.83
2018-04-11T09:40:04.257Z,22.40
2018-04-11T09:42:31.808Z,21.93
2018-04-11T09:44:59.337Z,22.13
2018-04-11T09:47:26.901Z,22.07
2018-04-11T09:49:54.432Z,22.27
2018-04-11T09:52:21.984Z,22.87
2018-04-11T09:54:49.509Z,22.03
2018-04-11T09:57:17.064Z,22.67
2018-04-11T09:59:45.356Z,22.67
2018-04-11T10:02:18.543Z,22.10
2018-04-11T10:04:46.069Z,22.97
2018-04-11T10:07:13.621Z,23.83
2018-04-11T10:09:41.155Z,24.63
2018-04-11T10:12:08.717Z,22.63
2018-04-11T10:14:37.024Z,22.50
2018-04-11T10:17:04.585Z,23.27
2018-04-11T10:19:32.108Z,23.77
2018-04-11T10:21:59.680Z,21.30
2018-04-11T10:24:27.204Z,22.80
2018-04-11T10:26:54.768Z,21.40
2018-04-11T10:29:22.477Z,22.20
2018-04-11T10:31:50.039Z,21.53
2018-04-11T10:34:17.969Z,21.67
2018-04-11T10:36:45.526Z,21.30
2018-04-11T10:39:13.253Z,21.93
2018-04-11T10:41:40.881Z,21.80
2018-04-11T10:44:08.508Z,21.73
2018-04-11T10:46:36.037Z,21.33
2018-04-11T10:49:03.600Z,21.93
2018-04-11T10:51:31.120Z,21.00
2018-04-11T10:53:58.683Z,20.10
2018-04-11T10:56:26.213Z,21.43
2018-04-11T10:58:53.771Z,20.63
2018-04-11T11:01:21.297Z,21.23
2018-04-11T11:03:48.857Z,21.17
2018-04-11T11:06:16.389Z,20.97
2018-04-11T11:08:43.953Z,20.27
2018-04-11T11:11:11.488Z,20.53
2018-04-11T11:13:39.048Z,20.33
2018-04-11T11:16:06.576Z,20.00
2018-04-11T11:18:34.904Z,20.67
2018-04-11T11:21:02.437Z,20.93
2018-04-11T11:23:29.992Z,20.67
2018-04-11T11:25:57.528Z,21.00
2018-04-11T11:28:25.860Z,20.87
2018-04-11T11:30:53.388Z,21.00
2018-04-11T11:33:20.929Z,20.47
2018-04-11T11:35:49.380Z,22.00
2018-04-11T11:38:16.905Z,22.23
2018-04-11T11:40:44.467Z,23.00
2018-04-11T11:43:11.998Z,21.97
2018-04-11T11:45:39.562Z,22.50
2018-04-11T11:48:07.849Z,22.60
2018-04-11T11:50:35.401Z,23.67
2018-04-11T11:53:02.928Z,22.63
2018-04-11T11:55:30.488Z,23.30
2018-04-11T11:57:58.040Z,22.53
2018-04-11T12:00:25.596Z,22.57
2018-04-11T12:02:53.124Z,22.60
2018-04-11T12:05:20.676Z,22.77
2018-04-11T12:07:48.205Z,22.47
2018-04-11T12:10:16.521Z,21.27
2018-04-11T12:12:44.053Z,20.43
2018-04-11T12:15:12.373Z,20.77
2018-04-11T12:17:39.901Z,21.60
2018-04-11T12:20:07.459Z,21.87
2018-04-11T12:22:34.991Z,21.20
2018-04-11T12:25:02.571Z,21.53
2018-04-11T12:27:30.860Z,21.67
2018-04-11T12:29:58.394Z,22.10
2018-04-11T12:32:25.948Z,20.50
2018-04-11T12:34:53.473Z,20.30
2018-04-11T12:37:21.046Z,19.83
2018-04-11T12:39:48.609Z,19.30
2018-04-11T12:42:16.160Z,21.50
2018-04-11T12:44:43.688Z,19.87
2018-04-11T12:47:11.245Z,20.77
2018-04-11T12:49:38.773Z,19.87
2018-04-11T12:52:07.101Z,20.80
2018-04-11T12:54:34.628Z,18.27
2018-04-11T12:57:02.237Z,17.13
2018-04-11T12:59:29.771Z,17.23
2018-04-11T13:01:57.319Z,20.73
2018-04-11T13:04:24.848Z,20.13
2018-04-11T13:06:52.399Z,20.80
2018-04-11T13:09:19.928Z,19.70
2018-04-11T13:11:47.488Z,20.93
2018-04-11T13:14:15.028Z,19.30
2018-04-11T13:16:42.591Z,19.63
2018-04-11T13:19:10.108Z,20.30
2018-04-11T13:21:37.668Z,21.37
2018-04-11T13:24:05.188Z,20.33
2018-04-11T13:26:32.744Z,20.97
2018-04-11T13:29:00.272Z,19.93
2018-04-11T13:31:28.567Z,20.70
2018-04-11T13:33:56.136Z,19.33
2018-04-11T13:36:23.662Z,20.33
2018-04-11T13:38:51.216Z,21.17
2018-04-11T13:41:18.740Z,21.63
2018-04-11T13:43:46.301Z,20.60
2018-04-11T13:46:13.849Z,19.47
2018-04-11T13:48:41.401Z,19.57
2018-04-11T13:51:08.924Z,22.90
2018-04-11T13:53:37.252Z,22.47
2018-04-11T13:56:04.781Z,22.93
2018-04-11T13:58:32.334Z,23.50
2018-04-11T14:01:00.619Z,22.33
2018-04-11T14:03:28.172Z,23.73
2018-04-11T14:05:56.471Z,22.50
2018-04-11T14:08:24.035Z,25.13
2018-04-11T14:10:51.566Z,23.27
2018-04-11T14:13:19.885Z,23.77
2018-04-11T14:15:47.412Z,23.93
2018-04-11T14:18:15.732Z,24.60
2018-04-11T14:20:43.256Z,24.90
2018-04-11T14:23:10.817Z,26.07
2018-04-11T14:25:38.344Z,27.00
2018-04-11T14:28:05.905Z,26.23
2018-04-11T14:30:33.436Z,26.03
2018-04-11T14:33:00.980Z,26.73
2018-04-11T14:35:28.541Z,24.87
2018-04-11T14:37:56.072Z,23.60
2018-04-11T14:40:23.619Z,23.57
2018-04-11T14:42:51.912Z,23.30
2018-04-11T14:45:19.477Z,23.37
2018-04-11T14:47:47.009Z,23.03
2018-04-11T14:50:15.337Z,22.97
2018-04-11T14:52:42.865Z,22.97
2018-04-11T14:55:11.191Z,23.73
2018-04-11T14:57:38.712Z,24.73
2018-04-11T15:00:06.305Z,24.67
2018-04-11T15:02:33.815Z,24.97
2018-04-11T15:05:02.141Z,25.90
2018-04-11T15:07:29.673Z,26.57
2018-04-11T15:09:57.228Z,27.20
2018-04-11T15:12:24.756Z,26.00
2018-04-11T15:14:52.315Z,26.13
2018-04-11T15:17:19.846Z,26.90
2018-04-11T15:19:47.392Z,27.30
2018-04-11T15:22:14.920Z,26.77
2018-04-11T15:24:43.240Z,26.60
2018-04-11T15:27:10.831Z,26.23
2018-04-11T15:29:38.392Z,27.07
2018-04-11T15:32:05.921Z,28.30
2018-04-11T15:34:33.484Z,26.63
2018-04-11T15:37:01.218Z,26.60
2018-04-11T15:39:28.759Z,24.93
2018-04-11T15:41:57.076Z,25.33
2018-04-11T15:44:24.604Z,24.30
2018-04-11T15:46:52.232Z,23.93
2018-04-11T15:49:19.768Z,24.27
2018-04-11T15:51:47.318Z,25.13
2018-04-11T15:54:14.844Z,24.47
2018-04-11T15:56:43.165Z,25.13
2018-04-11T15:59:10.698Z,23.23
2018-04-11T16:01:38.256Z,23.27
2018-04-11T16:04:05.788Z,22.87
2018-04-11T16:06:34.115Z,22.27
2018-04-11T16:09:02.408Z,22.43
2018-04-11T16:11:29.968Z,21.17
2018-04-11T16:13:57.514Z,22.07
2018-04-11T16:16:25.085Z,21.63
2018-04-11T16:18:52.617Z,21.63
2018-04-11T16:21:20.168Z,21.73
2018-04-11T16:23:47.692Z,22.33
2018-04-11T16:26:15.268Z,22.10
2018-04-11T16:28:43.569Z,21.97
2018-04-11T16:31:11.132Z,22.20
2018-04-11T16:33:38.658Z,20.97
2018-04-11T16:36:06.234Z,23.03
2018-04-11T16:38:34.562Z,21.40
2018-04-11T16:41:02.064Z,22.20
2018-04-11T16:43:30.387Z,22.50
2018-04-11T16:45:57.917Z,21.23
2018-04-11T16:48:25.483Z,22.43
2018-04-11T16:50:53.013Z,21.50
2018-04-11T16:53:20.572Z,21.87
2018-04-11T16:55:48.099Z,20.93
2018-04-11T16:58:15.648Z,21.00
2018-04-11T17:00:43.169Z,20.10
2018-04-11T17:03:11.493Z,19.47
2018-04-11T17:05:39.013Z,19.37
2018-04-11T17:08:07.331Z,19.93
2018-04-11T17:10:34.859Z,19.70
2018-04-11T17:13:02.416Z,18.50
2018-04-11T17:15:29.945Z,18.37
2018-04-11T17:17:57.511Z,16.50
2018-04-11T17:23:39.388Z,14.77
2018-04-11T17:26:18.736Z,14.80
2018-04-11T17:28:58.232Z,14.57
2018-04-11T17:31:26.678Z,13.20
2018-04-11T17:33:54.240Z,13.47
2018-04-11T17:36:21.763Z,13.17
2018-04-11T17:38:49.336Z,14.83
2018-04-11T17:41:16.860Z,15.23
2018-04-11T17:43:44.415Z,15.73
2018-04-11T17:46:11.949Z,15.47
2018-04-11T17:48:39.517Z,15.60
2018-04-11T17:51:07.045Z,16.70
2018-04-11T17:53:34.572Z,16.43
2018-04-11T17:56:02.130Z,17.20
2018-04-11T17:58:29.660Z,18.00
2018-04-11T18:00:57.988Z,17.20
2018-04-11T18:03:25.513Z,17.00
2018-04-11T18:05:53.840Z,18.57
2018-04-11T18:08:21.410Z,18.63
2018-04-11T18:10:48.949Z,18.50
2018-04-11T18:13:16.476Z,19.47
2018-04-11T18:15:44.795Z,18.83
2018-04-11T18:18:12.384Z,18.70
2018-04-11T18:20:39.962Z,19.10
2018-04-11T18:23:07.484Z,19.67
2018-04-11T18:25:35.040Z,18.37
2018-04-11T18:28:02.560Z,19.07
2018-04-11T18:30:30.119Z,18.83
2018-04-11T18:32:58.412Z,19.47
2018-04-11T18:35:25.972Z,19.57
2018-04-11T18:37:53.498Z,19.47
2018-04-11T18:40:21.828Z,19.23
2018-04-11T18:42:49.373Z,18.27
2018-04-11T18:45:16.933Z,18.37
2018-04-11T18:47:44.469Z,18.37
2018-04-11T18:50:12.763Z,19.10
2018-04-11T18:52:40.328Z,19.13
2018-04-11T18:55:07.869Z,18.57
2018-04-11T18:57:36.195Z,18.83
2018-04-11T19:00:03.733Z,18.20
2018-04-11T19:02:31.297Z,18.97
2018-04-11T19:04:58.832Z,19.07
2018-04-11T19:07:27.183Z,19.00
2018-04-11T19:09:54.701Z,18.67
2018-04-11T19:12:22.261Z,19.20
2018-04-11T19:14:49.811Z,18.07
2018-04-11T19:17:17.377Z,17.97
2018-04-11T19:19:44.896Z,16.87
2018-04-11T19:22:13.215Z,16.90
2018-04-11T19:24:40.745Z,16.03
2018-04-11T19:27:09.071Z,15.30
2018-04-11T19:29:36.603Z,15.43
2018-04-11T19:32:04.168Z,15.00
2018-04-11T19:34:31.754Z,14.40
2018-04-11T19:36:59.329Z,15.10
2018-04-11T19:39:26.857Z,15.50
2018-04-11T19:41:54.423Z,15.30
2018-04-11T19:44:22.009Z,14.83
2018-04-11T19:46:49.547Z,15.50
2018-04-11T19:49:17.067Z,15.07
2018-04-11T19:51:44.597Z,14.83
2018-04-11T19:54:12.152Z,14.57
2018-04-11T19:56:39.680Z,15.90
2018-04-11T19:59:07.243Z,16.93
2018-04-11T20:01:34.772Z,15.57
2018-04-11T20:04:03.100Z,15.33
2018-04-11T20:06:30.630Z,14.83
2018-04-11T20:08:58.192Z,14.97
2018-04-11T20:11:25.720Z,14.07
2018-04-11T20:13:54.047Z,15.53
2018-04-11T20:16:21.592Z,14.50
2018-04-11T20:18:49.154Z,14.57
2018-04-11T20:21:16.679Z,14.57
2018-04-11T20:23:45.005Z,14.33
2018-04-11T20:26:12.537Z,14.77
2018-04-11T20:28:40.100Z,14.43
2018-04-11T20:31:07.699Z,15.50
2018-04-11T20:33:35.976Z,15.17
2018-04-11T20:36:03.499Z,14.53
2018-04-11T20:38:31.061Z,14.10
2018-04-11T20:40:58.640Z,15.03
2018-04-11T20:43:26.206Z,16.00
2018-04-11T20:45:53.743Z,15.33
2018-04-11T20:48:21.313Z,16.13
2018-04-11T20:50:48.840Z,15.67
2018-04-11T20:53:17.140Z,15.60
2018-04-11T20:55:44.701Z,16.37
2018-04-11T20:58:12.245Z,15.33
2018-04-11T21:00:40.574Z,16.07
2018-04-11T21:03:08.100Z,14.87
2018-04-11T21:05:35.661Z,16.00
2018-04-11T21:08:03.192Z,15.70
2018-04-11T21:10:30.759Z,15.30
2018-04-11T21:12:58.289Z,15.07
2018-04-11T21:15:25.841Z,15.33
2018-04-11T21:17:53.369Z,14.73
2018-04-11T21:20:20.925Z,15.80
2018-04-11T21:22:48.456Z,15.50
2018-04-11T21:25:16.012Z,16.40
2018-04-11T21:27:43.545Z,15.30
2018-04-11T21:30:11.100Z,15.30
2018-04-11T21:32:38.620Z,15.83
2018-04-11T21:35:06.936Z,16.33
2018-04-11T21:37:34.457Z,15.80
2018-04-11T21:40:02.786Z,15.13
2018-04-11T21:42:30.317Z,15.60
2018-04-11T21:44:57.873Z,16.20
2018-04-11T21:47:25.396Z,15.83
2018-04-11T21:49:52.959Z,16.87
2018-04-11T21:52:20.509Z,17.47
2018-04-11T21:54:48.031Z,16.73
2018-04-11T21:57:15.598Z,18.33
2018-04-11T21:59:43.136Z,18.83
2018-04-11T22:02:10.697Z,18.13
2018-04-11T22:04:38.227Z,18.67
2018-04-11T22:07:06.552Z,18.23
2018-04-11T22:09:34.082Z,19.33
2018-04-11T22:12:01.637Z,19.63
2018-04-11T22:14:29.932Z,18.57
2018-04-11T22:16:57.488Z,19.60
2018-04-11T22:19:25.007Z,20.70
2018-04-11T22:21:52.561Z,21.10
2018-04-11T22:24:20.092Z,21.50
2018-04-11T22:26:47.645Z,22.17
2018-04-11T22:29:15.180Z,21.83
2018-04-11T22:31:42.736Z,23.10
2018-04-11T22:34:11.033Z,21.60
2018-04-11T22:36:38.588Z,23.77
2018-04-11T22:39:06.115Z,24.47
2018-04-11T22:41:34.442Z,23.13
2018-04-11T22:44:01.965Z,24.07
2018-04-11T22:46:30.294Z,24.37
2018-04-11T22:48:57.830Z,24.97
2018-04-11T22:51:25.392Z,24.77
2018-04-11T22:53:52.924Z,24.10
2018-04-11T22:56:21.217Z,22.93
2018-04-11T22:58:48.778Z,22.90
2018-04-11T23:01:16.311Z,22.27
2018-04-11T23:03:44.662Z,22.57
2018-04-11T23:06:12.197Z,22.83
2018-04-11T23:08:39.760Z,22.80
2018-04-11T23:11:07.279Z,23.60
2018-04-11T23:13:35.648Z,22.23
2018-04-11T23:16:03.177Z,23.63
2018-04-11T23:18:30.773Z,22.43
2018-04-11T23:20:58.280Z,23.03
2018-04-11T23:23:25.842Z,22.83
2018-04-11T23:25:53.377Z,22.13
2018-04-11T23:28:20.941Z,23.17
2018-04-11T23:30:48.468Z,21.60
2018-04-11T23:33:16.789Z,22.17
2018-04-11T23:35:44.316Z,21.53
2018-04-11T23:38:11.876Z,22.37
2018-04-11T23:40:40.169Z,23.53
2018-04-11T23:43:07.723Z,21.90
2018-04-11T23:45:35.256Z,24.20
2018-04-11T23:48:02.816Z,22.30
2018-04-11T23:50:30.341Z,22.97
2018-04-11T23:52:57.930Z,20.97
2018-04-11T23:55:25.457Z,22.03
2018-04-11T23:57:53.019Z,23.00
